Time;durP1;ratioP1;P1;durP2;ratioP2;P2;SDS_P1;SDS_P2;PMS_P1;PMS_P2;Temp;Humidity;BMP_temperature;BMP_pressure;BME280_temperature;BME280_humidity;BME280_pressure;Samples;Min_cycle;Max_cycle;Signal;HPM_P1;HPM_P2
2023/02/17 00:00:13;;;;;;;77.90;40.33;;;;;;;2.07;60.35;100916.91;122912;1105;104401;-76
2023/02/17 00:03:04;;;;;;;81.47;41.10;;;;;;;2.01;59.52;100913.86;122924;1105;104351;-75
2023/02/17 00:05:39;;;;;;;78.93;39.77;;;;;;;1.97;59.95;100913.62;122857;1105;104360;-76
2023/02/17 00:08:10;;;;;;;75.53;39.37;;;;;;;1.95;59.69;100907.44;122961;1105;104261;-76
2023/02/17 00:10:41;;;;;;;75.57;40.27;;;;;;;1.93;60.70;100908.09;122891;1105;104342;-76
2023/02/17 00:13:13;;;;;;;76.77;38.70;;;;;;;1.90;59.87;100907.86;122881;1105;104642;-75
2023/02/17 00:15:44;;;;;;;71.77;38.13;;;;;;;1.87;60.63;100913.72;122852;1105;104418;-76
2023/02/17 00:18:15;;;;;;;75.13;39.90;;;;;;;1.85;60.49;100914.38;122887;1105;104242;-76
2023/02/17 00:20:47;;;;;;;70.67;37.57;;;;;;;1.81;60.18;100908.07;122980;1105;104257;-76
2023/02/17 00:23:18;;;;;;;81.20;41.30;;;;;;;1.75;60.09;100908.48;122883;1105;104287;-76
2023/02/17 00:25:49;;;;;;;75.63;40.17;;;;;;;1.73;60.82;100906.55;122832;1105;104290;-76
2023/02/17 00:28:20;;;;;;;77.00;40.90;;;;;;;1.73;60.73;100909.14;122932;1106;104674;-75
2023/02/17 00:30:54;;;;;;;82.82;41.35;;;;;;;1.72;60.88;100904.77;122951;1105;104347;-77
2023/02/17 00:33:25;;;;;;;82.10;41.80;;;;;;;1.69;60.96;100900.25;122831;1105;104425;-75
2023/02/17 00:35:56;;;;;;;77.60;40.47;;;;;;;1.66;60.67;100907.77;122961;1105;104354;-76
2023/02/17 00:38:28;;;;;;;77.43;38.83;;;;;;;1.59;60.32;100906.41;122835;1105;104740;-76
2023/02/17 00:41:00;;;;;;;84.97;41.77;;;;;;;1.51;60.67;100902.33;122796;1105;104344;-77
2023/02/17 00:43:31;;;;;;;82.80;41.67;;;;;;;1.48;60.80;100896.91;122917;1105;104213;-76
2023/02/17 00:46:03;;;;;;;78.33;40.87;;;;;;;1.44;60.69;100900.92;122877;1104;104318;-76
2023/02/17 00:48:35;;;;;;;79.65;41.10;;;;;;;1.40;61.04;100895.38;122917;1105;104246;-76
2023/02/17 00:51:06;;;;;;;72.17;37.07;;;;;;;1.37;60.85;100893.48;122865;1105;104313;-77
2023/02/17 00:53:39;;;;;;;75.17;37.97;;;;;;;1.37;60.68;100897.73;122756;1104;104306;-76
2023/02/17 00:56:11;;;;;;;68.93;34.27;;;;;;;1.38;61.91;100912.47;122874;1104;104350;-76
2023/02/17 00:58:42;;;;;;;74.00;36.70;;;;;;;1.30;61.23;100901.52;122928;1105;104332;-76
2023/02/17 01:01:14;;;;;;;70.47;35.87;;;;;;;1.24;61.22;100898.45;122887;1105;104258;-77
2023/02/17 01:03:45;;;;;;;65.77;34.43;;;;;;;1.26;60.97;100899.47;122933;1105;104184;-76
2023/02/17 01:06:22;;;;;;;62.45;32.83;;;;;;;1.25;61.28;100892.52;122885;1105;104287;-75
2023/02/17 01:08:54;;;;;;;62.53;31.90;;;;;;;1.25;61.57;100892.52;123009;1105;104772;-76
2023/02/17 01:11:27;;;;;;;63.20;32.40;;;;;;;1.21;62.14;100895.63;122994;1105;104271;-76
2023/02/17 01:13:59;;;;;;;58.58;28.27;;;;;;;1.17;62.77;100888.39;122924;1105;104312;-77
2023/02/17 01:16:34;;;;;;;57.90;29.03;;;;;;;1.13;62.49;100891.54;122940;1105;104398;-77
2023/02/17 01:19:03;;;;;;;;;;;;;;;1.09;64.92;100890.37;123007;1105;104293;-75
2023/02/17 01:21:36;;;;;;;60.77;28.77;;;;;;;1.07;63.00;100892.83;122905;1105;104655;-76
2023/02/17 01:24:09;;;;;;;63.73;30.57;;;;;;;1.03;62.77;100890.80;122907;1105;104346;-77
2023/02/17 01:26:42;;;;;;;61.00;30.17;;;;;;;0.99;62.77;100883.57;122949;1105;104297;-76
2023/02/17 01:29:13;;;;;;;57.77;30.40;;;;;;;0.97;63.50;100885.14;122896;1105;104261;-76
2023/02/17 01:31:47;;;;;;;60.40;30.33;;;;;;;0.92;63.26;100883.88;122922;1105;104240;-76
2023/02/17 01:34:18;;;;;;;58.13;30.57;;;;;;;0.88;63.02;100881.82;122874;1105;104188;-77
2023/02/17 01:36:50;;;;;;;62.37;29.33;;;;;;;0.84;62.94;100882.34;122856;1105;104331;-76
2023/02/17 01:39:21;;;;;;;60.67;29.40;;;;;;;0.80;63.31;100881.20;122886;1105;104380;-76
2023/02/17 01:41:53;;;;;;;62.70;30.93;;;;;;;0.81;63.31;100884.67;122766;1105;104240;-76
2023/02/17 01:44:26;;;;;;;62.93;31.57;;;;;;;0.82;63.99;100879.63;122782;1105;104397;-76
2023/02/17 01:46:57;;;;;;;57.90;29.30;;;;;;;0.79;63.71;100879.39;122958;1105;104819;-76
2023/02/17 01:49:35;;;;;;;54.13;27.63;;;;;;;0.76;63.79;100883.41;122893;1105;104261;-76
2023/02/17 01:52:13;;;;;;;61.40;28.00;;;;;;;0.70;64.37;100881.22;122991;1105;104264;-77
2023/02/17 01:54:50;;;;;;;55.70;28.77;;;;;;;0.65;64.28;100874.79;122834;1105;104389;-76
2023/02/17 01:57:25;;;;;;;58.80;29.87;;;;;;;0.60;65.19;100882.16;122928;1105;105591;-76
2023/02/17 01:59:56;;;;;;;61.00;29.30;;;;;;;0.55;64.60;100880.90;122901;1105;104370;-77
2023/02/17 02:02:30;;;;;;;56.07;26.80;;;;;;;0.52;65.45;100876.38;122890;1105;105857;-76
2023/02/17 02:05:03;;;;;;;54.37;26.70;;;;;;;0.48;64.93;100876.00;122961;1105;104265;-76
2023/02/17 02:07:38;;;;;;;51.20;24.10;;;;;;;0.49;65.36;100873.54;122999;1105;104278;-76
2023/02/17 02:10:12;;;;;;;53.60;26.23;;;;;;;0.48;65.42;100876.00;122901;1105;104291;-76
2023/02/17 02:12:44;;;;;;;54.23;27.27;;;;;;;0.46;65.49;100877.56;122869;1105;104635;-75
2023/02/17 02:15:18;;;;;;;51.53;26.03;;;;;;;0.43;65.83;100866.98;122920;1105;104294;-77
2023/02/17 02:18:03;;;;;;;52.45;25.97;;;;;;;0.41;65.30;100860.80;122994;1105;104242;-76
2023/02/17 02:20:45;;;;;;;;;;;;;;;0.41;65.88;100871.13;122952;1105;104275;-76
2023/02/17 02:23:42;;;;;;;52.70;24.57;;;;;;;0.40;65.43;100875.37;123101;1105;104373;-76
2023/02/17 02:27:04;;;;;;;51.67;24.73;;;;;;;0.40;65.65;100859.88;122983;1105;104376;-76
2023/02/17 02:30:02;;;;;;;50.57;24.67;;;;;;;0.43;65.54;100870.45;122993;1105;104262;-76
2023/02/17 02:32:49;;;;;;;51.73;24.43;;;;;;;0.48;65.84;100865.67;123055;1105;104430;-77
2023/02/17 02:35:27;;;;;;;52.95;24.72;;;;;;;0.52;65.83;100859.98;122871;1105;104325;-76
2023/02/17 02:38:04;;;;;;;51.93;24.90;;;;;;;0.59;65.89;100862.27;122737;1105;104238;-76
2023/02/17 02:40:41;;;;;;;49.87;23.40;;;;;;;0.64;66.04;100858.41;122863;1105;104341;-76
2023/02/17 02:43:13;;;;;;;44.20;22.33;;;;;;;0.70;65.44;100853.73;122785;1105;104317;-76
2023/02/17 02:45:44;;;;;;;45.43;22.87;;;;;;;0.76;65.41;100860.16;122990;1105;104360;-76
2023/02/17 02:48:15;;;;;;;46.93;23.53;;;;;;;0.80;64.95;100860.53;122778;1105;104271;-76
2023/02/17 02:50:59;;;;;;;52.73;24.43;;;;;;;0.86;65.20;100861.03;122700;1105;104280;-75
2023/02/17 02:54:08;;;;;;;47.85;23.50;;;;;;;0.91;65.44;100866.56;122801;1105;104370;-76
2023/02/17 02:57:12;;;;;;;49.07;23.47;;;;;;;0.91;65.35;100863.98;122839;1105;104281;-76
2023/02/17 02:59:58;;;;;;;50.20;24.07;;;;;;;0.91;65.06;100858.81;122798;1105;104367;-76
2023/02/17 03:02:38;;;;;;;48.60;24.93;;;;;;;0.94;64.94;100863.33;122802;1105;104351;-76
2023/02/17 03:05:15;;;;;;;51.80;24.83;;;;;;;0.98;65.17;100871.45;122754;1105;104293;-76
2023/02/17 03:07:54;;;;;;;50.50;24.53;;;;;;;1.03;65.16;100861.48;122849;1105;104341;-76
2023/02/17 03:10:26;;;;;;;48.90;25.30;;;;;;;1.08;65.13;100865.33;122765;1105;104242;-76
2023/02/17 03:12:58;;;;;;;47.43;23.90;;;;;;;1.10;64.97;100865.45;122818;1105;104192;-76
2023/02/17 03:15:32;;;;;;;53.73;24.50;;;;;;;1.10;65.33;100862.86;122897;1105;105949;-76
2023/02/17 03:18:05;;;;;;;47.43;24.03;;;;;;;1.08;65.14;100862.74;122868;1105;104325;-76
2023/02/17 03:20:42;;;;;;;48.47;22.70;;;;;;;1.05;65.35;100858.22;122865;1105;105681;-75
2023/02/17 03:23:13;;;;;;;47.30;23.70;;;;;;;1.04;65.25;100861.61;122855;1105;104274;-76
2023/02/17 03:25:46;;;;;;;47.67;23.63;;;;;;;1.01;65.28;100858.78;122774;1105;104325;-76
2023/02/17 03:28:18;;;;;;;49.17;24.00;;;;;;;1.02;65.21;100860.56;122790;1105;104316;-76
2023/02/17 03:30:49;;;;;;;49.40;23.03;;;;;;;1.06;65.32;100864.28;122685;1105;105485;-75
2023/02/17 03:33:20;;;;;;;50.40;24.53;;;;;;;1.07;65.34;100855.75;122910;1105;104402;-75
2023/02/17 03:35:52;;;;;;;48.50;24.60;;;;;;;1.08;65.30;100861.05;122912;1105;104377;-75
2023/02/17 03:38:23;;;;;;;48.80;23.80;;;;;;;1.11;65.39;100849.13;122956;1105;104280;-75
2023/02/17 03:40:54;;;;;;;48.20;23.33;;;;;;;1.12;65.56;100858.70;122999;1105;104332;-75
2023/02/17 03:43:26;;;;;;;48.93;23.53;;;;;;;1.14;65.36;100857.13;122954;1105;104265;-75
2023/02/17 03:45:57;;;;;;;53.10;24.35;;;;;;;1.14;65.32;100858.05;122849;1105;104299;-75
2023/02/17 03:48:28;;;;;;;50.23;24.17;;;;;;;1.16;65.67;100856.48;122851;1105;104274;-77
2023/02/17 03:51:09;;;;;;;45.00;22.97;;;;;;;1.18;65.66;100856.61;122789;1105;104315;-76
2023/02/17 03:53:40;;;;;;;55.67;25.67;;;;;;;1.19;65.57;100851.56;122788;1105;104405;-76
2023/02/17 03:56:13;;;;;;;52.30;25.13;;;;;;;1.19;65.49;100861.01;122767;1105;104412;-76
2023/02/17 03:58:45;;;;;;;46.23;23.87;;;;;;;1.17;65.10;100855.72;122861;1104;104299;-76
2023/02/17 04:01:16;;;;;;;51.17;22.50;;;;;;;1.16;65.79;100856.48;122887;1105;104305;-75
2023/02/17 04:03:48;;;;;;;46.30;23.50;;;;;;;1.15;65.66;100858.95;122803;1105;104320;-75
2023/02/17 04:06:19;;;;;;;49.73;22.63;;;;;;;1.12;65.73;100858.70;122834;1105;104303;-75
2023/02/17 04:08:50;;;;;;;47.87;23.80;;;;;;;1.08;65.81;100853.30;122811;1105;104386;-75
2023/02/17 04:11:22;;;;;;;46.70;22.57;;;;;;;1.08;65.94;100858.47;122847;1105;104236;-75
2023/02/17 04:13:53;;;;;;;48.43;22.37;;;;;;;1.06;65.41;100856.52;122852;1105;104290;-76
2023/02/17 04:16:24;;;;;;;48.23;23.27;;;;;;;1.05;65.78;100853.05;122851;1105;104296;-76
2023/02/17 04:18:55;;;;;;;48.97;23.17;;;;;;;1.04;65.91;100850.34;122900;1105;104389;-76
2023/02/17 04:21:27;;;;;;;44.10;22.53;;;;;;;1.05;65.58;100854.74;122767;1105;104335;-76
2023/02/17 04:24:00;;;;;;;44.83;21.90;;;;;;;1.06;66.02;100854.86;122979;1104;104338;-75
2023/02/17 04:26:31;;;;;;;44.33;21.90;;;;;;;1.07;65.82;100854.06;122859;1105;104219;-76
2023/02/17 04:29:05;;;;;;;45.30;22.47;;;;;;;1.08;65.60;100848.13;122950;1105;104188;-76
2023/02/17 04:31:35;;;;;;;;;;;;;;;1.10;65.45;100849.94;123011;1105;104351;-77
2023/02/17 04:34:06;;;;;;;52.27;25.50;;;;;;;1.08;65.76;100857.57;122937;1105;104300;-76
2023/02/17 04:36:37;;;;;;;51.93;24.43;;;;;;;1.06;65.76;100853.94;122979;1105;104290;-76
2023/02/17 04:39:09;;;;;;;53.00;24.57;;;;;;;1.05;66.19;100862.50;122957;1105;104304;-76
2023/02/17 04:41:40;;;;;;;51.60;24.80;;;;;;;1.03;65.88;100853.73;122960;1105;104274;-76
2023/02/17 04:44:11;;;;;;;45.73;23.73;;;;;;;1.01;66.03;100851.02;122949;1105;104261;-76
2023/02/17 04:46:42;;;;;;;47.77;23.27;;;;;;;1.02;66.08;100857.09;123022;1105;104261;-76
2023/02/17 04:49:14;;;;;;;44.83;23.00;;;;;;;0.99;65.97;100857.73;122955;1105;104267;-77
2023/02/17 04:51:45;;;;;;;48.35;22.80;;;;;;;0.96;66.43;100861.77;122844;1105;104274;-76
2023/02/17 04:54:16;;;;;;;48.50;22.00;;;;;;;0.91;66.39;100869.15;122877;1105;104370;-75
2023/02/17 04:56:47;;;;;;;51.00;23.37;;;;;;;0.87;66.49;100872.25;122736;1105;104405;-76
2023/02/17 04:59:19;;;;;;;48.37;23.13;;;;;;;0.86;66.33;100867.89;122708;1105;104746;-76
2023/02/17 05:01:50;;;;;;;45.57;22.67;;;;;;;0.86;66.54;100875.64;122703;1105;104661;-76
2023/02/17 05:04:21;;;;;;;45.90;21.93;;;;;;;0.87;66.82;100872.25;122734;1105;104300;-75
2023/02/17 05:06:52;;;;;;;49.63;22.77;;;;;;;0.91;66.70;100878.59;122930;1105;104274;-77
2023/02/17 05:09:24;;;;;;;45.03;20.97;;;;;;;0.93;66.98;100883.08;122939;1105;104309;-76
2023/02/17 05:11:56;;;;;;;44.27;22.57;;;;;;;0.98;67.53;100879.20;122929;1105;104277;-76
2023/02/17 05:14:27;;;;;;;44.13;21.87;;;;;;;1.00;67.46;100880.22;122857;1105;104393;-76
2023/02/17 05:16:58;;;;;;;44.67;21.83;;;;;;;1.05;67.61;100878.89;122756;1105;104293;-76
2023/02/17 05:19:30;;;;;;;42.83;20.23;;;;;;;1.13;67.26;100886.38;122963;1105;104399;-77
2023/02/17 05:22:01;;;;;;;43.20;20.57;;;;;;;1.19;67.74;100884.27;122857;1105;104262;-77
2023/02/17 05:24:32;;;;;;;45.07;20.60;;;;;;;1.25;67.33;100887.34;123021;1105;104360;-76
2023/02/17 05:27:04;;;;;;;41.70;20.53;;;;;;;1.31;67.19;100893.00;123112;1105;104299;-76
2023/02/17 05:29:35;;;;;;;44.77;21.70;;;;;;;1.36;67.62;100889.08;123048;1105;104318;-76
2023/02/17 05:32:06;;;;;;;43.90;20.50;;;;;;;1.42;67.08;100889.56;123111;1105;104261;-76
2023/02/17 05:34:38;;;;;;;46.20;21.17;;;;;;;1.51;67.18;100894.56;122990;1105;104377;-76
2023/02/17 05:37:10;;;;;;;42.03;20.10;;;;;;;1.58;67.55;100893.34;123129;1105;104380;-77
2023/02/17 05:39:41;;;;;;;46.63;20.67;;;;;;;1.65;66.98;100894.72;123081;1105;104249;-76
2023/02/17 05:42:13;;;;;;;46.63;21.63;;;;;;;1.69;67.43;100891.59;123165;1105;104265;-76
2023/02/17 05:44:44;;;;;;;43.73;21.23;;;;;;;1.74;67.35;100901.50;123333;1105;104332;-77
2023/02/17 05:47:15;;;;;;;46.27;21.03;;;;;;;1.78;67.13;100900.96;123296;1104;102260;-76
2023/02/17 05:49:47;;;;;;;42.60;20.37;;;;;;;1.84;67.52;100902.20;123205;1105;104320;-77
2023/02/17 05:52:18;;;;;;;43.10;20.13;;;;;;;1.90;67.52;100905.27;123367;1105;104393;-76
2023/02/17 05:54:50;;;;;;;43.83;19.97;;;;;;;1.99;68.42;100903.39;123278;1105;104291;-76
2023/02/17 05:57:21;;;;;;;43.73;19.40;;;;;;;2.10;67.87;100907.72;123428;1105;104184;-77
2023/02/17 05:59:53;;;;;;;42.13;19.40;;;;;;;2.25;67.88;100909.66;123550;1105;104386;-77
2023/02/17 06:02:24;;;;;;;45.50;19.50;;;;;;;2.38;68.24;100903.70;123388;1105;104325;-75
2023/02/17 06:04:55;;;;;;;41.77;18.60;;;;;;;2.48;67.70;100901.91;123356;1105;104239;-77
2023/02/17 06:07:26;;;;;;;41.07;19.27;;;;;;;2.58;67.33;100902.59;123294;1105;104293;-76
2023/02/17 06:09:58;;;;;;;42.10;20.53;;;;;;;2.65;67.79;100908.34;123433;1105;104294;-77
2023/02/17 06:12:29;;;;;;;47.73;20.73;;;;;;;2.73;66.86;100908.91;123418;1105;104399;-78
2023/02/17 06:15:00;;;;;;;41.23;19.83;;;;;;;2.81;66.92;100901.70;123473;1105;104417;-76
2023/02/17 06:17:31;;;;;;;39.70;19.23;;;;;;;2.92;67.17;100910.27;123575;1105;104243;-76
2023/02/17 06:20:04;;;;;;;44.90;21.20;;;;;;;3.00;66.98;100910.01;123731;1106;104360;-76
2023/02/17 06:22:35;;;;;;;42.67;19.70;;;;;;;3.12;67.07;100915.19;124044;1105;104261;-77
2023/02/17 06:25:07;;;;;;;40.33;19.73;;;;;;;3.25;66.81;100916.97;123885;1106;104316;-76
2023/02/17 06:27:38;;;;;;;42.20;21.45;;;;;;;3.36;67.71;100913.44;124194;1105;104060;-77
2023/02/17 06:30:12;;;;;;;40.77;19.97;;;;;;;3.46;67.67;100912.42;124094;1105;104217;-78
2023/02/17 06:32:42;;;;;;;;;;;;;;;3.55;66.79;100907.87;124626;1105;102291;-76
2023/02/17 06:35:14;;;;;;;42.00;20.27;;;;;;;3.64;66.69;100914.50;124039;1105;104307;-77
2023/02/17 06:37:47;;;;;;;44.48;19.85;;;;;;;3.74;66.67;100915.25;124239;1105;104230;-77
2023/02/17 06:40:21;;;;;;;48.20;22.17;;;;;;;3.84;67.23;100908.98;123969;1105;104271;-78
2023/02/17 06:42:52;;;;;;;40.58;19.02;;;;;;;3.92;66.46;100904.33;124005;1105;104278;-76
2023/02/17 06:45:24;;;;;;;44.47;20.53;;;;;;;3.97;67.18;100905.53;124160;1105;104302;-76
2023/02/17 06:47:55;;;;;;;43.47;21.17;;;;;;;4.03;66.92;100902.47;124261;1105;102417;-76
2023/02/17 06:50:27;;;;;;;42.77;20.33;;;;;;;4.09;66.79;100906.38;124265;1105;104249;-75
2023/02/17 06:52:58;;;;;;;45.37;21.50;;;;;;;4.16;66.40;100907.71;124252;1105;104197;-76
2023/02/17 06:55:30;;;;;;;43.80;20.70;;;;;;;4.25;66.59;100903.11;124304;1105;104223;-75
2023/02/17 06:58:01;;;;;;;46.80;22.10;;;;;;;4.39;66.82;100908.34;124382;1105;104220;-77
2023/02/17 07:00:33;;;;;;;43.33;22.07;;;;;;;4.54;67.08;100911.97;124277;1106;104264;-76
2023/02/17 07:03:04;;;;;;;42.67;21.43;;;;;;;4.69;66.44;100917.30;124128;1105;104201;-76
2023/02/17 07:05:38;;;;;;;43.60;21.23;;;;;;;4.76;66.21;100905.59;124344;1105;104182;-77
2023/02/17 07:08:12;;;;;;;44.20;21.33;;;;;;;4.84;65.79;100914.78;124403;1105;104250;-76
2023/02/17 07:10:43;;;;;;;39.40;19.40;;;;;;;4.95;66.31;100912.88;124444;1105;104188;-77
2023/02/17 07:13:14;;;;;;;41.73;20.73;;;;;;;5.01;65.82;100908.97;124383;1105;104233;-76
2023/02/17 07:15:46;;;;;;;45.60;20.80;;;;;;;5.08;65.44;100898.95;124012;1105;104332;-76
2023/02/17 07:18:17;;;;;;;46.63;20.90;;;;;;;5.16;65.33;100902.97;124214;1105;103138;-76
2023/02/17 07:20:49;;;;;;;45.20;20.60;;;;;;;5.24;65.20;100901.75;124174;1105;104210;-75
2023/02/17 07:23:20;;;;;;;51.10;22.77;;;;;;;5.31;64.81;100903.91;124058;1105;104282;-77
2023/02/17 07:25:52;;;;;;;48.50;21.97;;;;;;;5.42;64.72;100908.91;124488;1105;102471;-76
2023/02/17 07:28:24;;;;;;;47.97;21.33;;;;;;;5.50;65.10;100900.79;124724;1105;103730;-75
2023/02/17 07:30:56;;;;;;;49.40;22.73;;;;;;;5.60;65.15;100910.06;124457;1105;102216;-75
2023/02/17 07:33:30;;;;;;;45.53;21.57;;;;;;;5.68;64.87;100911.42;124364;1105;103158;-76
2023/02/17 07:36:05;;;;;;;44.67;21.30;;;;;;;5.83;65.37;100913.17;124374;1104;109382;-76
2023/02/17 07:38:37;;;;;;;44.83;21.10;;;;;;;5.98;65.19;100910.65;124592;1106;104255;-77
2023/02/17 07:41:16;;;;;;;39.97;20.40;;;;;;;6.10;65.04;100901.86;124479;1105;102788;-76
2023/02/17 07:43:53;;;;;;;40.83;20.80;;;;;;;6.23;64.59;100905.20;124563;1105;104350;-78
2023/02/17 07:46:30;;;;;;;46.20;21.33;;;;;;;6.33;63.80;100910.16;124858;1105;102722;-78
2023/02/17 07:49:12;;;;;;;42.80;20.33;;;;;;;6.43;63.93;100902.05;124436;1105;103423;-76
2023/02/17 07:51:46;;;;;;;41.50;20.80;;;;;;;6.55;63.70;100911.42;124562;1105;102755;-76
2023/02/17 07:54:20;;;;;;;41.07;20.00;;;;;;;6.67;63.13;100901.71;124660;1105;104220;-78
2023/02/17 07:56:54;;;;;;;44.83;20.73;;;;;;;6.78;63.19;100903.22;124642;1105;103951;-78
2023/02/17 07:59:30;;;;;;;43.10;18.35;;;;;;;6.86;62.51;100892.30;124513;1105;102560;-80
2023/02/17 08:02:02;;;;;;;46.10;20.37;;;;;;;6.99;61.76;100895.70;124808;1105;103628;-78
2023/02/17 08:04:35;;;;;;;48.67;21.70;;;;;;;7.06;62.25;100896.96;124735;1105;104166;-78
2023/02/17 08:07:09;;;;;;;43.73;20.93;;;;;;;7.16;61.43;100898.36;124425;1105;102287;-77
2023/02/17 08:15:27;;;;;;;44.13;21.03;;;;;;;7.42;61.22;100897.20;124517;1105;102796;-78
2023/02/17 08:22:11;;;;;;;42.53;20.87;;;;;;;7.71;60.82;100895.25;124241;1104;104415;-77
2023/02/17 08:24:44;;;;;;;42.77;20.63;;;;;;;7.83;60.47;100884.56;124420;1105;103173;-76
2023/02/17 08:27:21;;;;;;;43.13;21.27;;;;;;;7.97;59.44;100893.12;124686;1105;104207;-74
2023/02/17 08:29:53;;;;;;;45.40;21.33;;;;;;;8.11;59.72;100894.73;124838;1105;104341;-76
2023/02/17 08:32:25;;;;;;;47.03;22.27;;;;;;;8.22;59.32;100883.11;124671;1105;104248;-75
2023/02/17 08:35:02;;;;;;;45.27;22.83;;;;;;;8.33;58.80;100885.39;124717;1105;104488;-76
2023/02/17 08:37:34;;;;;;;46.20;22.07;;;;;;;8.42;57.86;100896.32;124728;1105;102830;-76
2023/02/17 08:40:10;;;;;;;48.37;22.13;;;;;;;8.52;57.96;100890.74;124670;1105;104345;-77
2023/02/17 08:42:44;;;;;;;43.27;21.50;;;;;;;8.62;58.93;100886.89;125020;1105;104240;-77
2023/02/17 08:45:18;;;;;;;45.80;23.30;;;;;;;8.73;58.21;100887.42;125011;1105;104219;-76
2023/02/17 08:47:51;;;;;;;47.73;23.40;;;;;;;8.76;56.76;100896.31;125911;1104;102036;-77
2023/02/17 08:50:25;;;;;;;43.20;21.03;;;;;;;8.76;56.55;100895.43;125828;1105;102305;-77
2023/02/17 08:52:57;;;;;;;49.77;23.43;;;;;;;8.73;56.19;100900.51;125817;1105;102946;-78
2023/02/17 08:55:30;;;;;;;45.50;21.60;;;;;;;8.71;56.01;100881.20;125632;1105;102265;-77
2023/02/17 08:58:02;;;;;;;43.67;21.00;;;;;;;8.80;55.78;100881.66;125814;1105;102084;-77
2023/02/17 09:00:36;;;;;;;47.30;24.37;;;;;;;8.90;55.24;100904.84;125021;1105;103609;-77
2023/02/17 09:03:13;;;;;;;51.37;22.83;;;;;;;8.95;55.26;100890.25;124835;1104;104168;-78
2023/02/17 09:06:12;;;;;;;47.77;22.70;;;;;;;9.09;55.34;100897.89;124926;1105;103096;-77
2023/02/17 09:08:47;;;;;;;49.27;24.27;;;;;;;9.16;54.67;100894.72;124549;1105;104217;-76
2023/02/17 09:11:21;;;;;;;46.93;22.13;;;;;;;9.15;53.96;100888.59;124817;1105;102166;-76
2023/02/17 09:13:53;;;;;;;49.77;24.57;;;;;;;9.15;55.20;100903.41;124401;1105;104246;-75
2023/02/17 09:16:25;;;;;;;43.73;22.43;;;;;;;9.21;54.30;100892.31;124590;1105;104207;-77
2023/02/17 09:18:58;;;;;;;50.50;25.63;;;;;;;9.27;54.75;100888.29;124633;1105;104268;-77
2023/02/17 09:21:30;;;;;;;49.60;24.60;;;;;;;9.36;55.50;100890.42;125051;1105;103176;-75
2023/02/17 09:24:06;;;;;;;46.93;22.83;;;;;;;9.43;53.75;100899.48;124973;1106;104194;-76
2023/02/17 09:26:41;;;;;;;47.77;22.80;;;;;;;9.45;54.04;100893.47;124676;1106;104191;-74
2023/02/17 09:29:19;;;;;;;45.13;21.77;;;;;;;9.47;53.87;100883.06;124883;1105;102376;-74
2023/02/17 09:31:52;;;;;;;52.37;24.40;;;;;;;9.45;54.32;100890.85;124766;1105;103366;-75
2023/02/17 09:34:29;;;;;;;49.37;23.73;;;;;;;9.45;53.22;100893.47;125029;1105;104236;-75
2023/02/17 09:37:01;;;;;;;48.40;23.80;;;;;;;9.47;52.69;100897.08;124639;1106;104268;-76
2023/02/17 09:39:32;;;;;;;48.47;24.00;;;;;;;9.53;53.39;100879.00;124506;1105;102702;-77
2023/02/17 09:42:06;;;;;;;48.17;22.70;;;;;;;9.55;52.70;100879.06;124456;1105;104181;-76
2023/02/17 09:44:44;;;;;;;50.27;23.80;;;;;;;9.62;52.71;100880.27;124529;1105;104232;-75
2023/02/17 09:47:20;;;;;;;46.15;22.20;;;;;;;9.67;51.37;100886.60;124487;1105;102902;-74
2023/02/17 09:50:09;;;;;;;50.03;23.63;;;;;;;9.77;52.63;100872.19;124608;1105;104258;-75
2023/02/17 09:52:43;;;;;;;;;;;;;;;9.70;51.16;100877.14;124765;1105;104335;-75
2023/02/17 09:55:22;;;;;;;46.17;22.70;;;;;;;9.62;52.29;100860.19;124730;1105;104175;-74
2023/02/17 09:58:00;;;;;;;45.73;22.43;;;;;;;9.61;52.35;100866.25;125015;1105;102421;-76
2023/02/17 10:00:38;;;;;;;46.70;23.10;;;;;;;9.57;52.15;100864.34;124662;1105;104197;-77
2023/02/17 10:03:16;;;;;;;46.50;22.45;;;;;;;9.60;52.39;100856.62;124575;1105;104185;-77
2023/02/17 10:05:56;;;;;;;43.43;21.53;;;;;;;9.63;52.43;100845.36;124437;1106;104254;-74
2023/02/17 10:08:41;;;;;;;43.97;22.40;;;;;;;9.68;51.95;100836.00;124707;1105;104286;-74
2023/02/17 10:11:25;;;;;;;46.60;23.20;;;;;;;9.72;51.78;100843.15;125062;1105;102341;-77
2023/02/17 10:13:57;;;;;;;;;;;;;;;9.73;52.25;100834.47;124757;1105;104208;-77
2023/02/17 10:16:33;;;;;;;43.60;23.33;;;;;;;9.74;52.61;100836.27;124683;1105;104236;-77
2023/02/17 10:19:11;;;;;;;42.80;22.57;;;;;;;9.78;52.37;100824.19;124911;1105;118325;-75
2023/02/17 10:21:49;;;;;;;43.97;22.50;;;;;;;9.80;51.96;100830.39;124643;1105;104283;-76
2023/02/17 10:24:22;;;;;;;48.63;24.30;;;;;;;9.82;52.32;100827.02;124408;1105;102768;-75
2023/02/17 10:27:07;;;;;;;42.23;21.27;;;;;;;9.83;50.94;100827.90;124381;1105;104185;-75
2023/02/17 10:29:50;;;;;;;42.00;21.80;;;;;;;9.86;51.48;100817.55;125946;1103;101715;-75
2023/02/17 10:32:25;;;;;;;42.60;21.23;;;;;;;9.90;51.42;100828.23;125967;1104;102865;-75
2023/02/17 10:35:11;;;;;;;43.33;21.63;;;;;;;9.95;51.68;100809.20;125838;1104;102835;-75
2023/02/17 10:37:48;;;;;;;42.90;20.87;;;;;;;10.09;50.27;100826.41;125865;1104;101952;-76
2023/02/17 10:40:25;;;;;;;41.57;20.63;;;;;;;10.24;50.85;100818.31;125952;1104;102869;-74
2023/02/17 10:43:15;;;;;;;42.77;19.67;;;;;;;10.37;50.14;100815.39;125863;1105;102656;-78
2023/02/17 10:45:50;;;;;;;40.17;20.93;;;;;;;10.40;50.09;100817.25;125900;1105;102002;-74
2023/02/17 10:48:50;;;;;;;38.93;19.33;;;;;;;10.45;50.36;100805.21;125794;1105;101879;-76
2023/02/17 10:51:29;;;;;;;42.37;20.97;;;;;;;10.47;50.20;100800.03;125910;1105;102704;-75
2023/02/17 10:54:16;;;;;;;37.37;18.73;;;;;;;10.51;49.61;100801.95;125914;1105;102462;-77
2023/02/17 10:57:03;;;;;;;35.30;18.05;;;;;;;10.50;49.63;100800.16;125803;1104;102393;-75
2023/02/17 10:59:59;;;;;;;39.87;19.90;;;;;;;10.52;49.59;100801.13;125760;1105;102512;-76
2023/02/17 11:02:49;;;;;;;41.03;18.87;;;;;;;10.53;48.29;100802.91;125820;1104;102819;-75
2023/02/17 11:05:31;;;;;;;36.47;16.60;;;;;;;10.52;48.03;100802.02;125933;1105;101771;-77
2023/02/17 11:08:08;;;;;;;35.13;17.60;;;;;;;10.55;48.21;100798.60;125810;1105;102341;-75
2023/02/17 11:10:43;;;;;;;34.27;17.27;;;;;;;10.57;48.64;100786.46;125789;1105;101874;-76
2023/02/17 11:13:41;;;;;;;36.63;17.17;;;;;;;10.58;48.12;100791.77;125743;1105;102801;-75
2023/02/17 11:16:35;;;;;;;38.40;17.60;;;;;;;10.60;48.54;100787.47;125758;1104;102319;-77
2023/02/17 11:26:20;;;;;;;32.30;16.47;;;;;;;10.74;47.93;100788.02;125779;1104;101874;-76
2023/02/17 11:29:06;;;;;;;31.00;16.03;;;;;;;10.77;47.13;100787.26;125601;1105;102789;-75
2023/02/17 11:32:11;;;;;;;;;;;;;;;;;;;;;
2023/02/17 11:38:17;;;;;;;29.03;14.13;;;;;;;10.92;48.11;100768.56;125872;1105;102356;-75
2023/02/17 11:40:58;;;;;;;36.37;15.10;;;;;;;11.00;48.26;100768.86;125632;1105;102104;-73
2023/02/17 11:43:31;;;;;;;34.60;15.85;;;;;;;11.02;47.92;100770.72;125903;1105;102566;-75
2023/02/17 11:46:29;;;;;;;31.93;15.67;;;;;;;11.07;47.73;100758.66;125885;1105;102094;-74
2023/02/17 11:49:29;;;;;;;32.88;15.38;;;;;;;11.03;46.03;100771.61;125718;1105;102513;-74
2023/02/17 11:52:13;;;;;;;31.97;15.23;;;;;;;10.97;46.97;100764.41;124868;1105;104176;-74
2023/02/17 11:54:58;;;;;;;30.83;15.13;;;;;;;10.97;46.48;100761.78;125938;1105;102125;-74
2023/02/17 11:57:39;;;;;;;32.50;14.87;;;;;;;10.96;46.36;100767.86;125768;1105;101887;-76
2023/02/17 12:00:21;;;;;;;29.30;14.33;;;;;;;10.98;46.99;100758.30;125637;1105;102525;-76